sensor_id;sensor_type;location;lat;lon;timestamp;temperature;humidity
44427;DHT22;30133;47.866;-4.222;2022-08-11T00:01:26;27.70;49.80
44427;DHT22;30133;47.866;-4.222;2022-08-11T00:04:01;27.70;49.80
44427;DHT22;30133;47.866;-4.222;2022-08-11T00:06:36;27.80;49.80
44427;DHT22;30133;47.866;-4.222;2022-08-11T00:09:08;27.70;49.70
44427;DHT22;30133;47.866;-4.222;2022-08-11T00:11:44;27.70;49.70
44427;DHT22;30133;47.866;-4.222;2022-08-11T00:14:25;27.70;49.70
44427;DHT22;30133;47.866;-4.222;2022-08-11T00:19:45;27.70;49.70
44427;DHT22;30133;47.866;-4.222;2022-08-11T00:22:19;27.70;49.70
44427;DHT22;30133;47.866;-4.222;2022-08-11T00:24:46;27.70;49.70
44427;DHT22;30133;47.866;-4.222;2022-08-11T00:27:13;27.70;49.70
44427;DHT22;30133;47.866;-4.222;2022-08-11T00:29:39;27.70;49.60
44427;DHT22;30133;47.866;-4.222;2022-08-11T00:32:06;27.70;49.60
44427;DHT22;30133;47.866;-4.222;2022-08-11T00:34:39;27.70;49.60
44427;DHT22;30133;47.866;-4.222;2022-08-11T00:37:09;27.70;49.60
44427;DHT22;30133;47.866;-4.222;2022-08-11T00:39:51;27.70;49.60
44427;DHT22;30133;47.866;-4.222;2022-08-11T00:42:42;27.70;49.60
44427;DHT22;30133;47.866;-4.222;2022-08-11T00:48:44;27.70;49.60
44427;DHT22;30133;47.866;-4.222;2022-08-11T00:54:37;27.70;49.60
44427;DHT22;30133;47.866;-4.222;2022-08-11T01:00:12;27.60;49.60
44427;DHT22;30133;47.866;-4.222;2022-08-11T01:47:44;27.50;49.70
44427;DHT22;30133;47.866;-4.222;2022-08-11T01:59:34;27.50;49.70
44427;DHT22;30133;47.866;-4.222;2022-08-11T02:11:26;27.50;49.60
44427;DHT22;30133;47.866;-4.222;2022-08-11T02:20:33;27.50;49.60
44427;DHT22;30133;47.866;-4.222;2022-08-11T02:23:26;27.40;49.60
44427;DHT22;30133;47.866;-4.222;2022-08-11T02:26:05;27.50;49.70
44427;DHT22;30133;47.866;-4.222;2022-08-11T02:37:50;27.40;50.20
44427;DHT22;30133;47.866;-4.222;2022-08-11T02:40:45;27.40;49.60
44427;DHT22;30133;47.866;-4.222;2022-08-11T02:43:44;27.40;49.60
44427;DHT22;30133;47.866;-4.222;2022-08-11T02:46:22;27.40;49.60
44427;DHT22;30133;47.866;-4.222;2022-08-11T02:49:13;27.40;49.60
44427;DHT22;30133;47.866;-4.222;2022-08-11T02:52:24;27.40;49.60
44427;DHT22;30133;47.866;-4.222;2022-08-11T02:58:40;27.40;49.60
44427;DHT22;30133;47.866;-4.222;2022-08-11T03:01:44;27.30;49.60
44427;DHT22;30133;47.866;-4.222;2022-08-11T03:04:48;27.30;49.60
44427;DHT22;30133;47.866;-4.222;2022-08-11T03:10:22;27.30;49.60
44427;DHT22;30133;47.866;-4.222;2022-08-11T03:13:22;27.30;49.60
44427;DHT22;30133;47.866;-4.222;2022-08-11T03:16:23;27.30;49.50
44427;DHT22;30133;47.866;-4.222;2022-08-11T03:19:27;27.30;49.60
44427;DHT22;30133;47.866;-4.222;2022-08-11T03:22:16;27.30;49.60
44427;DHT22;30133;47.866;-4.222;2022-08-11T03:34:03;27.30;49.50
44427;DHT22;30133;47.866;-4.222;2022-08-11T03:43:50;27.20;49.60
44427;DHT22;30133;47.866;-4.222;2022-08-11T03:52:17;27.20;49.50
44427;DHT22;30133;47.866;-4.222;2022-08-11T04:09:45;27.20;49.60
44427;DHT22;30133;47.866;-4.222;2022-08-11T04:24:49;27.20;49.50
44427;DHT22;30133;47.866;-4.222;2022-08-11T04:41:22;27.10;49.50
44427;DHT22;30133;47.866;-4.222;2022-08-11T04:47:09;27.10;49.50
44427;DHT22;30133;47.866;-4.222;2022-08-11T04:50:29;27.10;49.40
44427;DHT22;30133;47.866;-4.222;2022-08-11T04:56:25;27.10;49.50
44427;DHT22;30133;47.866;-4.222;2022-08-11T05:08:48;27.00;49.50
44427;DHT22;30133;47.866;-4.222;2022-08-11T05:14:28;27.10;49.50
44427;DHT22;30133;47.866;-4.222;2022-08-11T05:20:50;27.00;49.50
44427;DHT22;30133;47.866;-4.222;2022-08-11T05:23:42;27.00;49.50
44427;DHT22;30133;47.866;-4.222;2022-08-11T05:26:45;27.00;49.50
44427;DHT22;30133;47.866;-4.222;2022-08-11T05:29:43;27.00;49.50
44427;DHT22;30133;47.866;-4.222;2022-08-11T05:32:38;27.00;49.40
44427;DHT22;30133;47.866;-4.222;2022-08-11T05:35:32;27.00;49.50
44427;DHT22;30133;47.866;-4.222;2022-08-11T05:38:14;26.90;49.40
44427;DHT22;30133;47.866;-4.222;2022-08-11T05:41:00;26.90;49.40
44427;DHT22;30133;47.866;-4.222;2022-08-11T05:43:46;26.90;49.40
44427;DHT22;30133;47.866;-4.222;2022-08-11T05:46:38;26.90;49.40
44427;DHT22;30133;47.866;-4.222;2022-08-11T05:49:29;26.90;49.40
44427;DHT22;30133;47.866;-4.222;2022-08-11T05:52:22;26.90;49.40
44427;DHT22;30133;47.866;-4.222;2022-08-11T05:55:08;26.90;49.40
44427;DHT22;30133;47.866;-4.222;2022-08-11T05:57:56;26.90;49.40
44427;DHT22;30133;47.866;-4.222;2022-08-11T06:00:26;26.90;49.40
44427;DHT22;30133;47.866;-4.222;2022-08-11T06:02:57;26.90;49.40
44427;DHT22;30133;47.866;-4.222;2022-08-11T06:05:33;26.90;49.40
44427;DHT22;30133;47.866;-4.222;2022-08-11T06:08:00;26.90;49.40
44427;DHT22;30133;47.866;-4.222;2022-08-11T06:10:38;26.90;49.30
44427;DHT22;30133;47.866;-4.222;2022-08-11T06:13:14;26.90;49.30
44427;DHT22;30133;47.866;-4.222;2022-08-11T06:15:46;26.90;49.30
44427;DHT22;30133;47.866;-4.222;2022-08-11T06:18:14;26.90;49.30
44427;DHT22;30133;47.866;-4.222;2022-08-11T06:20:48;26.90;49.30
44427;DHT22;30133;47.866;-4.222;2022-08-11T06:23:20;26.90;49.30
44427;DHT22;30133;47.866;-4.222;2022-08-11T06:25:53;26.90;49.30
44427;DHT22;30133;47.866;-4.222;2022-08-11T06:28:29;26.90;49.30
44427;DHT22;30133;47.866;-4.222;2022-08-11T06:30:58;26.90;49.30
44427;DHT22;30133;47.866;-4.222;2022-08-11T06:33:36;26.90;49.30
44427;DHT22;30133;47.866;-4.222;2022-08-11T06:36:14;26.90;49.30
44427;DHT22;30133;47.866;-4.222;2022-08-11T06:41:51;26.90;49.30
44427;DHT22;30133;47.866;-4.222;2022-08-11T06:44:31;26.90;49.40
44427;DHT22;30133;47.866;-4.222;2022-08-11T06:47:10;26.90;49.30
44427;DHT22;30133;47.866;-4.222;2022-08-11T06:49:43;26.80;49.10
44427;DHT22;30133;47.866;-4.222;2022-08-11T06:52:36;26.90;49.00
44427;DHT22;30133;47.866;-4.222;2022-08-11T06:55:09;26.80;48.80
44427;DHT22;30133;47.866;-4.222;2022-08-11T06:57:38;26.80;48.70
44427;DHT22;30133;47.866;-4.222;2022-08-11T07:00:25;26.80;48.40
44427;DHT22;30133;47.866;-4.222;2022-08-11T07:03:11;26.70;48.10
44427;DHT22;30133;47.866;-4.222;2022-08-11T07:05:46;26.70;48.10
44427;DHT22;30133;47.866;-4.222;2022-08-11T07:08:42;26.70;47.90
44427;DHT22;30133;47.866;-4.222;2022-08-11T07:14:55;26.70;47.80
44427;DHT22;30133;47.866;-4.222;2022-08-11T07:17:48;26.70;47.80
44427;DHT22;30133;47.866;-4.222;2022-08-11T07:20:38;26.70;47.70
44427;DHT22;30133;47.866;-4.222;2022-08-11T07:23:24;26.70;47.70
44427;DHT22;30133;47.866;-4.222;2022-08-11T07:26:09;26.70;47.70
44427;DHT22;30133;47.866;-4.222;2022-08-11T07:28:55;26.70;47.70
44427;DHT22;30133;47.866;-4.222;2022-08-11T07:31:36;26.60;47.60
44427;DHT22;30133;47.866;-4.222;2022-08-11T07:34:35;26.70;48.20
44427;DHT22;30133;47.866;-4.222;2022-08-11T07:37:13;26.70;47.60
44427;DHT22;30133;47.866;-4.222;2022-08-11T07:39:46;26.70;47.80
44427;DHT22;30133;47.866;-4.222;2022-08-11T07:42:15;26.60;47.80
44427;DHT22;30133;47.866;-4.222;2022-08-11T07:44:46;26.60;47.80
44427;DHT22;30133;47.866;-4.222;2022-08-11T07:47:31;26.70;48.00
44427;DHT22;30133;47.866;-4.222;2022-08-11T07:50:16;26.60;48.00
44427;DHT22;30133;47.866;-4.222;2022-08-11T07:53:01;26.70;48.10
44427;DHT22;30133;47.866;-4.222;2022-08-11T07:55:28;26.70;48.10
44427;DHT22;30133;47.866;-4.222;2022-08-11T07:57:57;26.60;48.00
44427;DHT22;30133;47.866;-4.222;2022-08-11T08:01:01;26.70;48.10
44427;DHT22;30133;47.866;-4.222;2022-08-11T08:03:53;26.70;48.00
44427;DHT22;30133;47.866;-4.222;2022-08-11T08:06:39;26.70;48.30
44427;DHT22;30133;47.866;-4.222;2022-08-11T08:09:24;26.70;48.40
44427;DHT22;30133;47.866;-4.222;2022-08-11T08:12:09;26.70;48.40
44427;DHT22;30133;47.866;-4.222;2022-08-11T08:14:55;26.70;48.50
44427;DHT22;30133;47.866;-4.222;2022-08-11T08:17:41;26.70;48.50
44427;DHT22;30133;47.866;-4.222;2022-08-11T08:20:24;26.70;48.80
44427;DHT22;30133;47.866;-4.222;2022-08-11T08:22:55;26.40;49.00
44427;DHT22;30133;47.866;-4.222;2022-08-11T08:25:29;26.30;49.30
44427;DHT22;30133;47.866;-4.222;2022-08-11T08:27:59;26.20;49.20
44427;DHT22;30133;47.866;-4.222;2022-08-11T08:30:27;26.20;49.20
44427;DHT22;30133;47.866;-4.222;2022-08-11T08:33:19;26.20;49.30
44427;DHT22;30133;47.866;-4.222;2022-08-11T08:35:57;26.10;49.10
44427;DHT22;30133;47.866;-4.222;2022-08-11T08:38:56;26.10;49.10
44427;DHT22;30133;47.866;-4.222;2022-08-11T08:41:29;26.10;48.70
44427;DHT22;30133;47.866;-4.222;2022-08-11T08:44:00;26.30;48.20
44427;DHT22;30133;47.866;-4.222;2022-08-11T08:46:35;26.30;47.90
44427;DHT22;30133;47.866;-4.222;2022-08-11T08:49:06;26.40;47.80
44427;DHT22;30133;47.866;-4.222;2022-08-11T08:51:37;26.50;47.60
44427;DHT22;30133;47.866;-4.222;2022-08-11T08:54:09;26.60;47.80
44427;DHT22;30133;47.866;-4.222;2022-08-11T08:56:40;26.70;48.40
44427;DHT22;30133;47.866;-4.222;2022-08-11T08:59:09;26.70;48.60
44427;DHT22;30133;47.866;-4.222;2022-08-11T09:01:54;26.90;47.90
44427;DHT22;30133;47.866;-4.222;2022-08-11T09:04:30;27.00;47.80
44427;DHT22;30133;47.866;-4.222;2022-08-11T09:06:59;27.10;47.10
44427;DHT22;30133;47.866;-4.222;2022-08-11T09:09:32;27.20;46.60
44427;DHT22;30133;47.866;-4.222;2022-08-11T09:12:01;27.20;46.20
44427;DHT22;30133;47.866;-4.222;2022-08-11T09:14:35;27.30;46.00
44427;DHT22;30133;47.866;-4.222;2022-08-11T09:17:22;27.40;46.30
44427;DHT22;30133;47.866;-4.222;2022-08-11T09:19:55;27.50;47.60
44427;DHT22;30133;47.866;-4.222;2022-08-11T09:22:30;27.60;48.60
44427;DHT22;30133;47.866;-4.222;2022-08-11T09:25:21;27.70;48.10
44427;DHT22;30133;47.866;-4.222;2022-08-11T09:28:10;27.80;47.60
44427;DHT22;30133;47.866;-4.222;2022-08-11T09:30:41;27.90;47.60
44427;DHT22;30133;47.866;-4.222;2022-08-11T09:33:11;27.90;46.90
44427;DHT22;30133;47.866;-4.222;2022-08-11T09:35:40;27.90;46.00
44427;DHT22;30133;47.866;-4.222;2022-08-11T09:38:14;28.00;45.70
44427;DHT22;30133;47.866;-4.222;2022-08-11T09:41:02;28.00;45.50
44427;DHT22;30133;47.866;-4.222;2022-08-11T09:43:31;28.00;45.20
44427;DHT22;30133;47.866;-4.222;2022-08-11T09:46:25;28.00;45.20
44427;DHT22;30133;47.866;-4.222;2022-08-11T09:48:56;28.10;45.70
44427;DHT22;30133;47.866;-4.222;2022-08-11T09:51:25;28.10;46.20
44427;DHT22;30133;47.866;-4.222;2022-08-11T09:53:55;28.10;45.10
44427;DHT22;30133;47.866;-4.222;2022-08-11T09:56:24;28.10;45.00
44427;DHT22;30133;47.866;-4.222;2022-08-11T09:59:09;28.00;44.30
44427;DHT22;30133;47.866;-4.222;2022-08-11T10:01:40;28.00;43.90
44427;DHT22;30133;47.866;-4.222;2022-08-11T10:04:17;28.00;43.40
44427;DHT22;30133;47.866;-4.222;2022-08-11T10:06:55;28.00;43.20
44427;DHT22;30133;47.866;-4.222;2022-08-11T10:12:11;28.10;42.90
44427;DHT22;30133;47.866;-4.222;2022-08-11T10:14:44;28.10;43.40
44427;DHT22;30133;47.866;-4.222;2022-08-11T10:17:32;28.10;42.80
44427;DHT22;30133;47.866;-4.222;2022-08-11T10:19:59;28.20;42.80
44427;DHT22;30133;47.866;-4.222;2022-08-11T10:22:29;28.20;42.10
44427;DHT22;30133;47.866;-4.222;2022-08-11T10:25:14;28.30;41.70
44427;DHT22;30133;47.866;-4.222;2022-08-11T10:28:02;28.40;42.30
44427;DHT22;30133;47.866;-4.222;2022-08-11T10:30:30;28.50;42.30
44427;DHT22;30133;47.866;-4.222;2022-08-11T10:33:16;28.60;42.70
44427;DHT22;30133;47.866;-4.222;2022-08-11T10:36:03;28.70;42.70
44427;DHT22;30133;47.866;-4.222;2022-08-11T10:38:30;28.80;42.90
44427;DHT22;30133;47.866;-4.222;2022-08-11T10:40:57;28.90;43.10
44427;DHT22;30133;47.866;-4.222;2022-08-11T10:44:01;28.90;43.10
44427;DHT22;30133;47.866;-4.222;2022-08-11T10:46:28;29.00;43.30
44427;DHT22;30133;47.866;-4.222;2022-08-11T10:49:13;29.00;43.30
44427;DHT22;30133;47.866;-4.222;2022-08-11T10:51:39;29.00;43.50
44427;DHT22;30133;47.866;-4.222;2022-08-11T10:54:25;29.10;43.60
44427;DHT22;30133;47.866;-4.222;2022-08-11T10:57:10;29.10;43.70
44427;DHT22;30133;47.866;-4.222;2022-08-11T10:59:58;29.10;43.80
44427;DHT22;30133;47.866;-4.222;2022-08-11T11:02:24;29.10;43.80
44427;DHT22;30133;47.866;-4.222;2022-08-11T11:05:00;29.10;43.90
44427;DHT22;30133;47.866;-4.222;2022-08-11T11:10:15;29.20;44.10
44427;DHT22;30133;47.866;-4.222;2022-08-11T11:12:44;29.10;44.10
44427;DHT22;30133;47.866;-4.222;2022-08-11T11:15:33;29.20;44.20
44427;DHT22;30133;47.866;-4.222;2022-08-11T11:18:26;29.20;44.30
44427;DHT22;30133;47.866;-4.222;2022-08-11T11:20:58;29.20;44.30
44427;DHT22;30133;47.866;-4.222;2022-08-11T11:23:27;29.10;44.40
44427;DHT22;30133;47.866;-4.222;2022-08-11T11:26:07;29.10;44.40
44427;DHT22;30133;47.866;-4.222;2022-08-11T11:36:50;29.20;44.60
44427;DHT22;30133;47.866;-4.222;2022-08-11T11:39:30;29.20;44.70
44427;DHT22;30133;47.866;-4.222;2022-08-11T11:42:00;29.20;44.70
44427;DHT22;30133;47.866;-4.222;2022-08-11T11:44:29;29.20;44.70
44427;DHT22;30133;47.866;-4.222;2022-08-11T11:46:56;29.20;44.70
44427;DHT22;30133;47.866;-4.222;2022-08-11T11:49:29;29.20;44.70
44427;DHT22;30133;47.866;-4.222;2022-08-11T11:51:58;29.20;44.70
44427;DHT22;30133;47.866;-4.222;2022-08-11T11:54:30;29.20;44.80
44427;DHT22;30133;47.866;-4.222;2022-08-11T11:57:02;29.20;44.80
44427;DHT22;30133;47.866;-4.222;2022-08-11T11:59:50;29.20;44.80
44427;DHT22;30133;47.866;-4.222;2022-08-11T12:02:36;29.20;44.80
44427;DHT22;30133;47.866;-4.222;2022-08-11T12:05:05;29.10;44.80
44427;DHT22;30133;47.866;-4.222;2022-08-11T12:07:33;29.20;44.80
44427;DHT22;30133;47.866;-4.222;2022-08-11T12:10:25;29.20;44.80
44427;DHT22;30133;47.866;-4.222;2022-08-11T12:12:51;29.20;44.90
44427;DHT22;30133;47.866;-4.222;2022-08-11T12:15:36;29.10;44.90
44427;DHT22;30133;47.866;-4.222;2022-08-11T12:18:05;29.10;44.90
44427;DHT22;30133;47.866;-4.222;2022-08-11T12:20:32;29.20;45.50
44427;DHT22;30133;47.866;-4.222;2022-08-11T12:22:59;29.20;45.60
44427;DHT22;30133;47.866;-4.222;2022-08-11T12:25:44;29.20;45.00
44427;DHT22;30133;47.866;-4.222;2022-08-11T12:28:30;29.10;45.00
44427;DHT22;30133;47.866;-4.222;2022-08-11T12:30:56;29.10;45.00
44427;DHT22;30133;47.866;-4.222;2022-08-11T12:33:23;29.10;45.00
44427;DHT22;30133;47.866;-4.222;2022-08-11T12:35:55;29.10;45.10
44427;DHT22;30133;47.866;-4.222;2022-08-11T12:38:24;29.10;45.10
44427;DHT22;30133;47.866;-4.222;2022-08-11T12:40:52;29.10;45.10
44427;DHT22;30133;47.866;-4.222;2022-08-11T12:43:37;29.10;45.10
44427;DHT22;30133;47.866;-4.222;2022-08-11T12:46:34;29.10;45.10
44427;DHT22;30133;47.866;-4.222;2022-08-11T12:49:12;29.10;45.20
44427;DHT22;30133;47.866;-4.222;2022-08-11T12:52:03;29.10;45.30
44427;DHT22;30133;47.866;-4.222;2022-08-11T12:57:35;28.80;45.70
44427;DHT22;30133;47.866;-4.222;2022-08-11T13:00:23;28.30;46.40
44427;DHT22;30133;47.866;-4.222;2022-08-11T13:03:10;28.30;47.60
44427;DHT22;30133;47.866;-4.222;2022-08-11T13:05:57;28.30;47.40
44427;DHT22;30133;47.866;-4.222;2022-08-11T13:08:32;28.20;47.70
44427;DHT22;30133;47.866;-4.222;2022-08-11T13:11:08;28.20;48.50
44427;DHT22;30133;47.866;-4.222;2022-08-11T13:13:54;28.10;48.30
44427;DHT22;30133;47.866;-4.222;2022-08-11T13:16:43;28.10;48.70
44427;DHT22;30133;47.866;-4.222;2022-08-11T13:19:29;28.10;49.40
44427;DHT22;30133;47.866;-4.222;2022-08-11T13:21:56;28.10;49.70
44427;DHT22;30133;47.866;-4.222;2022-08-11T13:24:23;28.10;48.90
44427;DHT22;30133;47.866;-4.222;2022-08-11T13:26:49;28.10;48.90
44427;DHT22;30133;47.866;-4.222;2022-08-11T13:29:24;28.10;48.90
44427;DHT22;30133;47.866;-4.222;2022-08-11T13:31:55;28.10;48.90
44427;DHT22;30133;47.866;-4.222;2022-08-11T13:34:26;28.10;48.90
44427;DHT22;30133;47.866;-4.222;2022-08-11T13:36:59;28.00;48.90
44427;DHT22;30133;47.866;-4.222;2022-08-11T13:39:29;28.00;48.90
44427;DHT22;30133;47.866;-4.222;2022-08-11T13:41:58;28.00;48.90
44427;DHT22;30133;47.866;-4.222;2022-08-11T13:44:27;28.00;48.80
44427;DHT22;30133;47.866;-4.222;2022-08-11T13:47:02;28.00;48.80
44427;DHT22;30133;47.866;-4.222;2022-08-11T13:49:31;28.10;48.90
44427;DHT22;30133;47.866;-4.222;2022-08-11T13:52:00;28.10;49.00
44427;DHT22;30133;47.866;-4.222;2022-08-11T13:54:34;28.10;49.00
44427;DHT22;30133;47.866;-4.222;2022-08-11T13:57:06;28.10;49.20
44427;DHT22;30133;47.866;-4.222;2022-08-11T13:59:36;28.10;49.70
44427;DHT22;30133;47.866;-4.222;2022-08-11T14:02:07;28.10;50.60
44427;DHT22;30133;47.866;-4.222;2022-08-11T14:07:19;28.30;49.70
44427;DHT22;30133;47.866;-4.222;2022-08-11T14:09:56;28.30;50.20
44427;DHT22;30133;47.866;-4.222;2022-08-11T14:12:32;28.30;48.70
44427;DHT22;30133;47.866;-4.222;2022-08-11T14:15:22;28.40;48.90
44427;DHT22;30133;47.866;-4.222;2022-08-11T14:18:10;28.40;49.20
44427;DHT22;30133;47.866;-4.222;2022-08-11T14:20:43;28.30;48.90
44427;DHT22;30133;47.866;-4.222;2022-08-11T14:23:41;28.30;48.90
44427;DHT22;30133;47.866;-4.222;2022-08-11T14:26:12;28.30;48.90
44427;DHT22;30133;47.866;-4.222;2022-08-11T14:31:29;28.30;49.10
44427;DHT22;30133;47.866;-4.222;2022-08-11T14:34:00;28.30;49.10
44427;DHT22;30133;47.866;-4.222;2022-08-11T14:36:30;28.30;49.10
44427;DHT22;30133;47.866;-4.222;2022-08-11T14:39:09;28.30;49.00
44427;DHT22;30133;47.866;-4.222;2022-08-11T14:42:04;28.30;49.20
44427;DHT22;30133;47.866;-4.222;2022-08-11T14:44:58;28.30;49.50
44427;DHT22;30133;47.866;-4.222;2022-08-11T14:47:56;28.30;49.60
44427;DHT22;30133;47.866;-4.222;2022-08-11T14:50:31;28.30;50.20
44427;DHT22;30133;47.866;-4.222;2022-08-11T14:53:09;28.30;51.20
44427;DHT22;30133;47.866;-4.222;2022-08-11T14:55:43;28.40;50.50
44427;DHT22;30133;47.866;-4.222;2022-08-11T14:58:29;28.40;50.30
44427;DHT22;30133;47.866;-4.222;2022-08-11T15:00:57;28.40;50.40
44427;DHT22;30133;47.866;-4.222;2022-08-11T15:03:27;28.40;50.10
44427;DHT22;30133;47.866;-4.222;2022-08-11T15:05:56;28.40;50.00
44427;DHT22;30133;47.866;-4.222;2022-08-11T15:08:28;28.40;50.00
44427;DHT22;30133;47.866;-4.222;2022-08-11T15:11:17;28.40;50.00
44427;DHT22;30133;47.866;-4.222;2022-08-11T15:14:11;28.30;50.00
44427;DHT22;30133;47.866;-4.222;2022-08-11T15:16:43;28.30;50.00
44427;DHT22;30133;47.866;-4.222;2022-08-11T15:19:29;28.30;49.90
44427;DHT22;30133;47.866;-4.222;2022-08-11T15:21:56;28.30;49.90
44427;DHT22;30133;47.866;-4.222;2022-08-11T15:24:40;28.30;50.00
44427;DHT22;30133;47.866;-4.222;2022-08-11T15:27:18;28.30;49.80
44427;DHT22;30133;47.866;-4.222;2022-08-11T15:30:05;28.40;49.80
44427;DHT22;30133;47.866;-4.222;2022-08-11T15:32:51;28.40;49.70
44427;DHT22;30133;47.866;-4.222;2022-08-11T15:35:37;28.40;49.40
44427;DHT22;30133;47.866;-4.222;2022-08-11T15:38:22;28.40;49.40
44427;DHT22;30133;47.866;-4.222;2022-08-11T15:40:50;28.50;49.50
44427;DHT22;30133;47.866;-4.222;2022-08-11T15:43:42;28.60;49.10
44427;DHT22;30133;47.866;-4.222;2022-08-11T15:46:38;28.70;48.80
44427;DHT22;30133;47.866;-4.222;2022-08-11T15:49:22;28.90;48.50
44427;DHT22;30133;47.866;-4.222;2022-08-11T15:52:02;29.00;48.10
44427;DHT22;30133;47.866;-4.222;2022-08-11T15:54:34;29.10;47.90
44427;DHT22;30133;47.866;-4.222;2022-08-11T15:57:04;29.20;47.70
44427;DHT22;30133;47.866;-4.222;2022-08-11T15:59:33;29.20;47.40
44427;DHT22;30133;47.866;-4.222;2022-08-11T16:02:21;29.30;47.30
44427;DHT22;30133;47.866;-4.222;2022-08-11T16:04:50;29.30;47.20
44427;DHT22;30133;47.866;-4.222;2022-08-11T16:07:20;29.40;47.10
44427;DHT22;30133;47.866;-4.222;2022-08-11T16:09:58;29.40;47.00
44427;DHT22;30133;47.866;-4.222;2022-08-11T16:12:27;29.40;46.90
44427;DHT22;30133;47.866;-4.222;2022-08-11T16:15:08;29.40;46.80
44427;DHT22;30133;47.866;-4.222;2022-08-11T16:18:02;29.40;46.90
44427;DHT22;30133;47.866;-4.222;2022-08-11T16:20:30;29.40;46.80
44427;DHT22;30133;47.866;-4.222;2022-08-11T16:23:01;29.40;46.80
44427;DHT22;30133;47.866;-4.222;2022-08-11T16:25:29;29.50;46.70
44427;DHT22;30133;47.866;-4.222;2022-08-11T16:28:02;29.50;46.70
44427;DHT22;30133;47.866;-4.222;2022-08-11T16:30:34;29.50;46.70
44427;DHT22;30133;47.866;-4.222;2022-08-11T16:33:05;29.50;46.70
44427;DHT22;30133;47.866;-4.222;2022-08-11T16:35:35;29.50;46.70
44427;DHT22;30133;47.866;-4.222;2022-08-11T16:38:24;29.50;46.60
44427;DHT22;30133;47.866;-4.222;2022-08-11T16:43:40;29.50;46.60
44427;DHT22;30133;47.866;-4.222;2022-08-11T16:46:26;29.50;46.60
44427;DHT22;30133;47.866;-4.222;2022-08-11T16:49:26;29.50;46.60
44427;DHT22;30133;47.866;-4.222;2022-08-11T16:51:55;29.60;46.70
44427;DHT22;30133;47.866;-4.222;2022-08-11T16:54:21;29.50;46.60
44427;DHT22;30133;47.866;-4.222;2022-08-11T16:56:52;29.50;46.60
44427;DHT22;30133;47.866;-4.222;2022-08-11T16:59:36;29.50;46.60
44427;DHT22;30133;47.866;-4.222;2022-08-11T17:02:16;29.60;46.70
44427;DHT22;30133;47.866;-4.222;2022-08-11T17:05:10;29.50;46.70
44427;DHT22;30133;47.866;-4.222;2022-08-11T17:07:59;29.50;46.70
44427;DHT22;30133;47.866;-4.222;2022-08-11T17:11:07;29.50;46.80
44427;DHT22;30133;47.866;-4.222;2022-08-11T17:14:16;29.50;46.80
44427;DHT22;30133;47.866;-4.222;2022-08-11T17:16:56;29.50;46.80
44427;DHT22;30133;47.866;-4.222;2022-08-11T17:19:27;29.50;46.90
44427;DHT22;30133;47.866;-4.222;2022-08-11T17:21:57;29.50;46.90
44427;DHT22;30133;47.866;-4.222;2022-08-11T17:25:04;29.50;46.90
44427;DHT22;30133;47.866;-4.222;2022-08-11T17:27:51;29.50;47.00
44427;DHT22;30133;47.866;-4.222;2022-08-11T17:30:21;29.50;47.00
44427;DHT22;30133;47.866;-4.222;2022-08-11T17:33:09;29.50;47.00
44427;DHT22;30133;47.866;-4.222;2022-08-11T17:35:55;29.50;47.00
44427;DHT22;30133;47.866;-4.222;2022-08-11T17:38:23;29.50;47.10
44427;DHT22;30133;47.866;-4.222;2022-08-11T17:41:00;29.50;47.10
44427;DHT22;30133;47.866;-4.222;2022-08-11T17:43:47;29.50;47.10
44427;DHT22;30133;47.866;-4.222;2022-08-11T17:46:34;29.50;47.10
44427;DHT22;30133;47.866;-4.222;2022-08-11T17:49:39;29.40;47.10
44427;DHT22;30133;47.866;-4.222;2022-08-11T17:52:06;29.40;47.20
44427;DHT22;30133;47.866;-4.222;2022-08-11T17:54:53;29.40;47.80
44427;DHT22;30133;47.866;-4.222;2022-08-11T17:57:38;29.40;47.20
44427;DHT22;30133;47.866;-4.222;2022-08-11T18:00:24;29.50;47.30
44427;DHT22;30133;47.866;-4.222;2022-08-11T18:02:52;29.40;47.30
44427;DHT22;30133;47.866;-4.222;2022-08-11T18:05:41;29.40;47.30
44427;DHT22;30133;47.866;-4.222;2022-08-11T18:08:11;29.40;47.30
44427;DHT22;30133;47.866;-4.222;2022-08-11T18:10:58;29.40;47.30
44427;DHT22;30133;47.866;-4.222;2022-08-11T18:13:44;29.40;47.30
44427;DHT22;30133;47.866;-4.222;2022-08-11T18:16:30;29.40;47.40
44427;DHT22;30133;47.866;-4.222;2022-08-11T18:19:21;29.40;47.40
44427;DHT22;30133;47.866;-4.222;2022-08-11T18:22:32;29.30;47.40
44427;DHT22;30133;47.866;-4.222;2022-08-11T18:25:31;29.30;47.50
44427;DHT22;30133;47.866;-4.222;2022-08-11T18:28:36;29.30;47.60
44427;DHT22;30133;47.866;-4.222;2022-08-11T18:31:26;29.30;47.60
44427;DHT22;30133;47.866;-4.222;2022-08-11T18:34:15;29.30;47.60
44427;DHT22;30133;47.866;-4.222;2022-08-11T18:37:26;29.30;47.60
44427;DHT22;30133;47.866;-4.222;2022-08-11T18:40:19;29.30;47.60
44427;DHT22;30133;47.866;-4.222;2022-08-11T18:43:09;29.30;47.70
44427;DHT22;30133;47.866;-4.222;2022-08-11T18:46:04;29.30;47.80
44427;DHT22;30133;47.866;-4.222;2022-08-11T18:49:05;29.30;47.80
44427;DHT22;30133;47.866;-4.222;2022-08-11T18:52:14;29.20;47.70
44427;DHT22;30133;47.866;-4.222;2022-08-11T18:55:18;29.20;47.80
44427;DHT22;30133;47.866;-4.222;2022-08-11T18:58:07;29.20;47.80
44427;DHT22;30133;47.866;-4.222;2022-08-11T19:00:56;29.20;47.80
44427;DHT22;30133;47.866;-4.222;2022-08-11T19:03:43;29.20;47.90
44427;DHT22;30133;47.866;-4.222;2022-08-11T19:06:30;29.20;47.90
44427;DHT22;30133;47.866;-4.222;2022-08-11T19:09:17;29.20;47.90
44427;DHT22;30133;47.866;-4.222;2022-08-11T19:12:03;29.20;48.00
44427;DHT22;30133;47.866;-4.222;2022-08-11T19:14:51;29.20;48.00
44427;DHT22;30133;47.866;-4.222;2022-08-11T19:17:41;29.20;48.00
44427;DHT22;30133;47.866;-4.222;2022-08-11T19:20:55;29.10;48.00
44427;DHT22;30133;47.866;-4.222;2022-08-11T19:23:46;29.10;48.00
44427;DHT22;30133;47.866;-4.222;2022-08-11T19:26:32;29.10;48.10
44427;DHT22;30133;47.866;-4.222;2022-08-11T19:29:35;29.10;48.10
44427;DHT22;30133;47.866;-4.222;2022-08-11T19:32:41;29.10;48.10
44427;DHT22;30133;47.866;-4.222;2022-08-11T19:35:40;29.10;48.20
44427;DHT22;30133;47.866;-4.222;2022-08-11T19:38:48;29.10;48.20
44427;DHT22;30133;47.866;-4.222;2022-08-11T19:41:35;29.10;48.30
44427;DHT22;30133;47.866;-4.222;2022-08-11T19:44:41;29.10;48.30
44427;DHT22;30133;47.866;-4.222;2022-08-11T19:47:47;29.00;48.30
44427;DHT22;30133;47.866;-4.222;2022-08-11T19:50:32;29.00;48.30
44427;DHT22;30133;47.866;-4.222;2022-08-11T19:53:27;29.10;48.40
44427;DHT22;30133;47.866;-4.222;2022-08-11T19:56:49;29.00;48.40
44427;DHT22;30133;47.866;-4.222;2022-08-11T19:59:55;29.00;48.40
44427;DHT22;30133;47.866;-4.222;2022-08-11T20:02:40;29.00;48.40
44427;DHT22;30133;47.866;-4.222;2022-08-11T20:05:25;29.00;48.40
44427;DHT22;30133;47.866;-4.222;2022-08-11T20:08:10;29.00;48.40
44427;DHT22;30133;47.866;-4.222;2022-08-11T20:10:56;29.00;48.50
44427;DHT22;30133;47.866;-4.222;2022-08-11T20:13:42;29.00;48.50
44427;DHT22;30133;47.866;-4.222;2022-08-11T20:56:15;28.80;48.50